Burns Pinion Ridge Reserve, California Weather observations

Data are for 10 minute period ending at time listed.
 Day   Time   Solar   Ave.   Ave.  Ave.  Vector  Max.   Baro.   Total    
  of    of     Rad.   Air    Rel.  Wind   Wind   Wind  Press.  Precip.   
Year   Day            Temp.  Hum.  Speed  Dir.   Gust                    
2015   (PST)  Kw/m2    F      %     mph   deg.    mph    mb.     in.     
-------------------------------------------------------------------------
 143   18:10   0.08   58.7    55    8.1   208    13.7   872.8    0.00 
 143   18:20   0.04   57.9    57    7.2   194    12.4   872.8    0.00 
 143   18:30   0.03   56.7    60    7.1   190    13.7   872.8    0.00 
 143   18:40   0.01   55.4    63    6.7   202    12.6   872.8    0.00 
 143   18:50   0.00   54.7    64    6.7   207    12.7   872.8    0.00 
 143   19:00   0.00   54.3    65    7.2   199    11.6   872.9    0.00 
 143   19:10   0.00   53.7    66    7.9   204    12.9   873.0    0.00 
 143   19:20   0.00   53.3    68    8.8   207    13.5   873.0    0.00 
 143   19:30   0.00   53.1    68    8.1   199    11.7   873.1    0.00 
 143   19:40   0.00   52.8    69    8.0   192    11.8   873.1    0.00 
 143   19:50   0.00   52.5    70    7.5   198    10.7   873.0    0.00 
 143   20:00   0.00   52.3    70    8.2   197    13.9   873.0    0.00 
 143   20:10   0.00   52.1    71    8.6   194    15.9   873.1    0.00 
 143   20:20   0.00   51.9    71   10.2   209    15.9   873.3    0.00 
 143   20:30   0.00   51.6    72    7.8   194    14.9   873.4    0.00 
 143   20:40   0.00   51.4    73    8.0   189    13.8   873.5    0.00 
 143   20:50   0.00   51.1    74    9.6   201    15.3   873.6    0.00 
 143   21:00   0.00   51.1    74   10.5   204    14.7   873.6    0.00 
 143   21:10   0.00   51.0    74    7.8   193    12.9   873.6    0.00 
 143   21:20   0.00   51.0    73    8.0   186    12.1   873.6    0.00 
 143   21:30   0.00   51.1    73    8.0   188    11.2   873.6    0.00 
 143   21:40   0.00   51.0    73    7.5   197    10.8   873.6    0.00 
 143   21:50   0.00   51.0    73    5.3   193     9.4   873.5    0.00 
 143   22:00   0.00   50.6    73    1.8   168     6.9   873.5    0.00 
 143   22:10   0.00   50.5    73    1.2   106     3.9   873.5    0.00 
 143   22:20   0.00   50.2    74    1.6   130     2.2   873.5    0.00 
 143   22:30   0.00   49.2    74    1.2   220     3.6   873.5    0.00 
 143   22:40   0.00   48.7    74    0.3   172     1.3   873.5    0.00 
 143   22:50   0.00   48.1    74    1.2   134     3.6   873.4    0.00 
 143   23:00   0.00   47.9    74    1.8   126     3.6   873.4    0.00 
 143   23:10   0.00   47.9    74    1.0   144     2.2   873.4    0.00 
 143   23:20   0.00   47.3    74    1.7   114     3.1   873.3    0.00 
 143   23:30   0.00   46.8    74    0.5   121     2.0   873.2    0.00 
 143   23:40   0.00   46.2    74    1.2   138     2.3   873.2    0.00 
 143   23:50   0.00   45.9    74    1.6   331     3.9   873.2    0.00 
 144    0:00   0.00   46.2    75    0.0     0     0.0   873.1    0.00 
 144    0:10   0.00   45.8    76    0.0   317     1.1   873.1    0.00 
 144    0:20   0.00   45.5    75    0.9   313     2.0   873.1    0.00 
 144    0:30   0.00   45.8    74    0.0     0     0.0   872.9    0.00 
 144    0:40   0.00   45.3    75    0.8   333     2.7   872.8    0.00 
 144    0:50   0.00   45.9    74    0.4    13     2.0   872.8    0.00 
 144    1:00   0.00   46.2    72    1.9    55     4.0   872.8    0.00 
 144    1:10   0.00   48.2    68    2.0    73     3.6   872.8    0.00 
 144    1:20   0.00   49.0    66    1.2    43     3.2   872.6    0.00 
 144    1:30   0.00   49.9    64    3.7    92     7.6   872.6    0.00 
 144    1:40   0.00   53.1    58    3.9    86     8.8   872.5    0.00 
 144    1:50   0.00   52.4    60    3.7    49     5.8   872.5    0.00 
 144    2:00   0.00   51.6    60    3.7    34     7.2   872.4    0.00 
 144    2:10   0.00   51.4    59    2.4    21     5.0   872.2    0.00 
 144    2:20   0.00   49.9    60    2.5   349     6.7   872.1    0.00 
 144    2:30   0.00   48.2    62    2.6   306     4.8   872.1    0.00 
 144    2:40   0.00   49.2    60    6.1   315    12.3   872.1    0.00 
 144    2:50   0.00   51.9    53    7.4   302    13.6   872.1    0.00 
 144    3:00   0.00   54.1    51    9.7   298    16.9   872.1    0.00 
 144    3:10   0.00   54.3    50    8.6   292    14.5   872.1    0.00 
 144    3:20   0.00   54.0    50    5.9   284     9.4   871.9    0.00 
 144    3:30   0.00   53.5    51    7.4   296    15.1   872.1    0.00 
 144    3:40   0.00   54.2    50    9.8   294    15.1   872.1    0.00 
 144    3:50   0.00   53.8    51    7.0   297    10.0   872.0    0.00 
 144    4:00   0.00   52.8    52    3.8   282     7.9   872.1    0.00 
 144    4:10   0.00   51.3    54    1.6   264     5.0   872.3    0.00 
 144    4:20   0.00   50.3    56    2.4   295     6.9   872.4    0.00 
 144    4:30   0.00   51.8    55    4.6   324     8.1   872.6    0.00 
 144    4:40   0.00   51.6    58    5.9   328     9.9   872.6    0.00 
 144    4:50   0.00   52.0    58    7.4   314    14.8   872.5    0.00 
 144    5:00   0.01   53.4    54   10.0   315    16.6   872.6    0.00 
 144    5:10   0.03   54.8    52    9.6   309    15.3   872.8    0.00 
 144    5:20   0.06   55.1    52    8.9   306    13.3   872.9    0.00 
 144    5:30   0.06   55.2    52    9.7   294    17.8   872.9    0.00 
 144    5:40   0.07   55.4    53    7.8   300    12.9   872.9    0.00 
 144    5:50   0.05   55.3    55    7.3   300    13.0   872.9    0.00 
 144    6:00   0.14   56.0    55    8.6   309    14.1   873.0    0.00 
 144    6:10   0.22   58.0    52    8.7   305    15.1   872.9    0.00 
 144    6:20   0.26   58.5    52   11.2   313    18.0   873.0    0.00 
 144    6:30   0.29   59.5    51   10.8   339    15.6   873.1    0.00 
 144    6:40   0.33   59.8    51    9.9   345    15.9   873.1    0.00 
 144    6:50   0.36   60.9    49    7.8   344    13.0   873.1    0.00 
 144    7:00   0.40   60.5    50   12.1   336    15.8   873.3    0.00 
 144    7:10   0.44   60.4    50   11.4   339    15.9   873.3    0.00 
 144    7:20   0.47   61.1    48   11.4   343    18.3   873.3    0.00 
 144    7:30   0.51   61.7    47   10.3   343    16.4   873.3    0.00 
 144    7:40   0.54   62.4    46   10.2   338    15.1   873.3    0.00 
 144    7:50   0.58   62.9    46   10.0   346    15.4   873.3    0.00 
 144    8:00   0.61   63.8    45   11.7   358    21.2   873.4    0.00 
 144    8:10   0.64   63.2    46   13.3     0    19.6   873.5    0.00 
 144    8:20   0.68   63.8    45   11.4   350    18.6   873.6    0.00 
 144    8:30   0.71   64.0    43   11.8   359    18.7   873.7    0.00 
 144    8:40   0.74   64.0    43   11.0   356    17.1   873.7    0.00 
 144    8:50   0.77   64.3    43   10.5     3    19.4   873.8    0.00 
 144    9:00   0.79   64.3    43   11.3   352    19.6   873.8    0.00 
 144    9:10   0.82   64.8    41   12.0     3    20.3   873.9    0.00 
 144    9:20   0.85   66.3    38   10.2     1    19.4   874.0    0.00 
 144    9:30   0.87   66.3    37   11.8   354    19.1   874.1    0.00 
 144    9:40   0.89   67.0    36   12.4   356    21.9   874.2    0.00 
 144    9:50   0.92   67.6    35    9.8     4    21.8   874.3    0.00 
 144   10:00   0.96   68.2    34   11.9   358    20.2   874.2    0.00 
 144   10:10   0.96   67.6    35   13.8   341    20.2   874.3    0.00 
 144   10:20   0.97   67.8    35   14.6   360    24.4   874.4    0.00 
 144   10:30   0.98   68.2    34   15.1     3    24.8   874.5    0.00 
 144   10:40   0.99   68.2    34   13.7     0    21.3   874.4    0.00 
 144   10:50   1.00   68.8    33   11.3   359    19.6   874.4    0.00 
 144   11:00   1.01   68.6    33   14.0     1    22.0   874.5    0.00 
 144   11:10   1.03   69.1    32   10.7     3    24.0   874.5    0.00 
 144   11:20   1.06   70.1    31   10.1     4    23.5   874.4    0.00 
 144   11:30   1.02   70.2    30    8.6    10    19.9   874.3    0.00 
 144   11:40   0.79   68.8    31    9.7     6    19.8   874.3    0.00 
 144   11:50   1.02   71.3    29    5.9     0    14.4   874.1    0.00 
 144   12:00   1.00   71.7    27    8.8     5    15.8   874.0    0.00 
 144   12:10   1.02   72.3    27    4.5    60    12.7   873.9    0.00 
 144   12:20   1.04   72.3    28    8.3    32    16.2   873.8    0.00 
 144   12:30   1.06   72.7    27    7.7     7    14.7   873.8    0.00 
 144   12:40   1.04   72.6    26    7.0   313    11.8   873.8    0.00 
 144   12:50   0.50   72.4    26    7.4   312    21.6   873.7    0.00 
 144   13:00   0.74   70.7    27    7.6    33    16.4   873.6    0.00 
 144   13:10   1.02   73.1    25    5.0     9    10.2   873.5    0.00 
 144   13:20   1.04   73.6    26    6.1    92    14.0   873.5    0.00 
 144   13:30   0.30   71.2    27    7.1   360    18.3   873.4    0.00 
 144   13:40   0.74   71.4    25    7.5    32    17.0   873.3    0.00 
 144   13:50   0.94   74.3    23    7.0    27    14.9   873.2    0.00 
 144   14:00   0.91   74.2    24    8.5     3    22.6   873.0    0.00 
 144   14:10   0.91   75.1    22    4.2    17    12.1   873.0    0.00 
 144   14:20   0.87   75.4    22    4.1   108    12.9   873.0    0.00 
 144   14:30   0.61   74.1    23    5.4   152    10.4   872.9    0.00 
 144   14:40   0.86   74.8    27    4.8   149    11.1   872.9    0.00 
 144   14:50   0.70   73.9    28    5.3   170    10.5   872.8    0.00 
 144   15:00   0.53   73.2    28    6.0   180    14.3   872.7    0.00 
 144   15:10   0.59   73.4    28    6.1   165    13.1   872.6    0.00 
 144   15:20   0.24   72.2    29    4.4   187    12.1   872.6    0.00 
 144   15:30   0.59   72.6    29    6.9   155    12.6   872.6    0.00 
 144   15:40   0.59   74.1    27    6.5   159    13.7   872.5    0.00 
 144   15:50   0.60   73.1    28    9.6   211    14.3   872.4    0.00 
 144   16:00   0.26   72.0    30    6.3   205    16.2   872.5    0.00 
 144   16:10   0.49   72.5    29    5.4   198    11.4   872.4    0.00 
 144   16:20   0.52   72.8    28    7.9   225    12.6   872.4    0.00 
 144   16:30   0.47   72.1    28    8.4   202    16.4   872.5    0.00 
 144   16:40   0.42   72.2    28    7.1   201    11.5   872.5    0.00 
 144   16:50   0.40   72.4    28    7.8   205    14.5   872.6    0.00 
 144   17:00   0.35   71.3    30    7.7   216    17.0   872.6    0.00 
 144   17:10   0.31   70.3    30    7.7   205    14.4   872.6    0.00 
 144   17:20   0.26   69.5    31    8.3   211    15.6   872.6    0.00 
 144   17:30   0.17   68.4    32    7.5   197    14.4   872.5    0.00 
 144   17:40   0.18   69.0    31    7.2   209    12.8   872.5    0.00 
 144   17:50   0.15   68.8    31    5.3   195    10.5   872.5    0.00 
 144   18:00   0.12   68.9    31    6.7   207    12.5   872.5    0.00 

Return to Burns Pinion Ridge Reserve graphs page.


Western Regional Climate Center,wrcc@dri.edu